Time;durP1;ratioP1;P1;durP2;ratioP2;P2;SDS_P1;SDS_P2;PMS_P1;PMS_P2;Temp;Humidity;BMP_temperature;BMP_pressure;BME280_temperature;BME280_humidity;BME280_pressure;Samples;Min_cycle;Max_cycle;Signal;HPM_P1;HPM_P2
2020/12/08 05:26:57;;;;;;;1999.90;999.90;;;-3.70;99.90;;;;;;5110548;27;20543;-50
2020/12/08 05:29:23;;;;;;;1999.90;999.90;;;-3.90;99.90;;;;;;5102326;28;20204;-50
2020/12/08 05:31:50;;;;;;;1999.90;999.90;;;-3.90;99.90;;;;;;5105194;28;20204;-49
2020/12/08 05:34:19;;;;;;;1999.90;999.90;;;-4.00;99.90;;;;;;5107428;28;20615;-50
2020/12/08 05:36:53;;;;;;;1999.90;999.90;;;-4.00;99.90;;;;;;5109180;28;20747;-49
2020/12/08 05:39:21;;;;;;;1999.90;999.90;;;-4.10;99.90;;;;;;5106649;28;20235;-49
2020/12/08 05:41:47;;;;;;;1999.90;999.90;;;-4.10;99.90;;;;;;5107418;28;20181;-50
2020/12/08 05:44:24;;;;;;;1999.90;999.90;;;-4.10;99.90;;;;;;5109352;28;20225;-49
2020/12/08 05:46:51;;;;;;;1999.90;999.90;;;-4.00;99.90;;;;;;5106006;28;20648;-49
2020/12/08 05:49:18;;;;;;;1999.90;999.90;;;-4.00;99.90;;;;;;5105261;28;20651;-50
2020/12/08 05:51:49;;;;;;;1999.90;999.90;;;-3.90;99.90;;;;;;5102219;28;20180;-50
2020/12/08 05:54:18;;;;;;;1999.90;999.90;;;-4.00;99.90;;;;;;5105799;28;20219;-49
2020/12/08 05:56:44;;;;;;;1999.90;999.90;;;-4.10;99.90;;;;;;5106522;28;20226;-50
2020/12/08 05:59:10;;;;;;;1999.90;999.90;;;-4.10;99.90;;;;;;5101985;28;20180;-50
2020/12/08 06:01:46;;;;;;;1999.90;999.90;;;-4.10;99.90;;;;;;5108468;28;20183;-50
2020/12/08 06:04:12;;;;;;;1999.90;999.90;;;-4.00;99.90;;;;;;5097307;28;21194;-49
2020/12/08 06:06:49;;;;;;;1999.90;999.90;;;-4.00;99.90;;;;;;5110122;28;20226;-50
2020/12/08 06:09:25;;;;;;;1999.90;999.90;;;-4.00;99.90;;;;;;5106560;28;20214;-50
2020/12/08 06:11:51;;;;;;;1999.90;999.90;;;-4.00;99.90;;;;;;5101845;28;20191;-50
2020/12/08 06:14:27;;;;;;;1999.90;999.90;;;-4.10;99.90;;;;;;5108252;28;20236;-50
2020/12/08 06:16:59;;;;;;;1999.90;999.90;;;-4.10;99.90;;;;;;5103413;28;20171;-50
2020/12/08 06:19:24;;;;;;;1999.90;999.90;;;-4.10;99.90;;;;;;5110635;28;20197;-50
2020/12/08 06:21:50;;;;;;;1999.90;999.90;;;-4.10;99.90;;;;;;5110837;28;20179;-50
2020/12/08 06:24:15;;;;;;;1999.90;999.90;;;-4.10;99.90;;;;;;5109967;28;20255;-50
2020/12/08 06:26:41;;;;;;;1999.90;999.90;;;-4.20;99.90;;;;;;5111619;28;20211;-50
2020/12/08 06:29:08;;;;;;;1999.90;999.90;;;-4.20;99.90;;;;;;5100737;28;20183;-50
2020/12/08 06:31:44;;;;;;;1999.90;999.90;;;-4.10;99.90;;;;;;5107471;28;20193;-49
2020/12/08 06:34:17;;;;;;;1999.90;999.90;;;-4.10;99.90;;;;;;5107417;28;20187;-51
2020/12/08 06:36:43;;;;;;;1999.90;999.90;;;-4.20;99.90;;;;;;5087629;28;20210;-50
2020/12/08 06:39:08;;;;;;;1999.90;999.90;;;-4.30;99.90;;;;;;5089931;28;20190;-50
2020/12/08 06:41:39;;;;;;;1999.90;999.90;;;-4.30;99.90;;;;;;5095636;28;20177;-51
2020/12/08 06:44:06;;;;;;;1999.90;999.90;;;-4.40;99.90;;;;;;5092648;28;20309;-50
2020/12/08 06:46:32;;;;;;;1999.90;999.90;;;-4.40;99.90;;;;;;5094365;28;20222;-50
2020/12/08 06:49:03;;;;;;;1999.90;999.90;;;-4.50;99.90;;;;;;5092861;28;20191;-50
2020/12/08 06:51:30;;;;;;;1999.90;999.90;;;-4.50;99.90;;;;;;5094780;28;20195;-50
2020/12/08 06:53:55;;;;;;;1999.90;999.90;;;-4.60;99.90;;;;;;5081849;28;20195;-50
2020/12/08 06:56:31;;;;;;;1999.90;999.90;;;-4.50;99.90;;;;;;5094495;28;20190;-50
2020/12/08 06:58:58;;;;;;;1999.90;999.90;;;-4.40;99.90;;;;;;5091804;28;20591;-50
2020/12/08 07:01:24;;;;;;;1999.90;999.90;;;-4.50;99.90;;;;;;5093669;28;20253;-50
2020/12/08 07:03:52;;;;;;;1999.90;999.90;;;-4.40;99.90;;;;;;5092862;28;20445;-50
2020/12/08 07:06:17;;;;;;;1999.90;999.90;;;-4.50;99.90;;;;;;5089367;28;20225;-51
2020/12/08 07:08:49;;;;;;;1999.90;999.90;;;-4.50;99.90;;;;;;5091722;28;20183;-50
2020/12/08 07:11:22;;;;;;;1999.90;999.90;;;-4.40;99.90;;;;;;5089490;28;20207;-51
2020/12/08 07:14:02;;;;;;;1999.90;999.90;;;-4.40;99.90;;;;;;5092071;28;20546;-50
2020/12/08 07:16:29;;;;;;;1999.90;999.90;;;-4.40;99.90;;;;;;5092552;28;20191;-50
2020/12/08 07:18:56;;;;;;;1999.90;999.90;;;-4.40;99.90;;;;;;5091494;28;20674;-50
2020/12/08 07:21:22;;;;;;;1999.90;999.90;;;-4.40;99.90;;;;;;5092677;28;20268;-50
2020/12/08 07:23:52;;;;;;;1999.90;999.90;;;-4.40;99.90;;;;;;5091509;28;20198;-50
2020/12/08 07:26:22;;;;;;;1999.90;999.90;;;-4.40;99.90;;;;;;5091361;28;20229;-49
2020/12/08 07:28:47;;;;;;;1999.90;999.90;;;-4.40;99.90;;;;;;5091618;28;20274;-50
2020/12/08 07:31:31;;;;;;;1999.90;999.90;;;-4.40;99.90;;;;;;5093002;28;20246;-50
2020/12/08 07:34:01;;;;;;;1999.90;999.90;;;-4.30;99.90;;;;;;5090478;28;20196;-50
2020/12/08 07:36:32;;;;;;;1999.90;999.90;;;-4.30;99.90;;;;;;5092851;28;20188;-50
2020/12/08 07:39:00;;;;;;;1999.90;999.90;;;-4.30;99.90;;;;;;5091814;28;20287;-51
2020/12/08 07:41:28;;;;;;;1999.90;999.90;;;-4.30;99.90;;;;;;5094113;28;20290;-51
2020/12/08 07:43:55;;;;;;;1999.90;999.90;;;-4.30;99.90;;;;;;5094085;28;20191;-50
2020/12/08 07:46:28;;;;;;;1999.90;999.90;;;-4.20;99.90;;;;;;5093487;28;20215;-50
2020/12/08 15:09:17;;;;;;;1999.90;999.90;;;1.50;99.90;;;;;;5100250;27;20597;-51
2020/12/08 15:11:45;;;;;;;1999.90;999.90;;;1.10;99.90;;;;;;5081260;28;20437;-51
2020/12/08 15:14:12;;;;;;;1999.90;999.90;;;0.90;99.90;;;;;;5087649;28;20515;-53
2020/12/08 15:16:38;;;;;;;1999.90;999.90;;;0.80;99.90;;;;;;5089056;28;20432;-51
2020/12/08 15:19:03;;;;;;;1999.90;999.90;;;0.70;99.90;;;;;;5091322;28;20454;-49
2020/12/08 15:21:29;;;;;;;1999.90;999.90;;;0.60;99.90;;;;;;5093003;28;20282;-51
2020/12/08 15:23:55;;;;;;;1999.90;999.90;;;0.50;99.90;;;;;;5099466;28;20222;-51
2020/12/08 15:26:20;;;;;;;1999.90;999.90;;;0.40;99.90;;;;;;5097485;28;20307;-51
2020/12/08 15:28:46;;;;;;;1999.90;999.90;;;0.40;99.90;;;;;;5089315;28;20747;-49
2020/12/08 15:31:12;;;;;;;1999.90;999.90;;;0.30;99.90;;;;;;5086186;28;20221;-50
2020/12/08 15:33:37;;;;;;;1999.90;999.90;;;0.20;99.90;;;;;;5090677;28;20543;-50
2020/12/08 15:36:03;;;;;;;1999.90;999.90;;;0.30;99.90;;;;;;5097816;28;20650;-49
2020/12/08 15:38:29;;;;;;;1999.90;999.90;;;0.30;99.90;;;;;;5086590;28;20271;-48
2020/12/08 15:40:55;;;;;;;1999.90;999.90;;;0.30;99.90;;;;;;5091164;28;20232;-50
2020/12/08 15:43:21;;;;;;;1999.90;999.90;;;0.30;99.90;;;;;;5091044;28;20181;-49
2020/12/08 15:45:46;;;;;;;1999.90;999.90;;;0.20;99.90;;;;;;5090153;28;20954;-49
2020/12/08 15:48:12;;;;;;;1999.90;999.90;;;0.20;99.90;;;;;;5091041;28;20297;-49
2020/12/08 15:50:38;;;;;;;1999.90;999.90;;;0.20;99.90;;;;;;5089753;28;20204;-51
2020/12/08 15:53:03;;;;;;;1999.90;999.90;;;0.20;99.90;;;;;;5090816;28;20201;-50
2020/12/08 15:55:29;;;;;;;1999.90;999.90;;;0.10;99.90;;;;;;5090122;28;20182;-49
2020/12/08 15:57:55;;;;;;;1999.90;999.90;;;0.10;99.90;;;;;;5091981;28;20198;-49
2020/12/08 16:00:20;;;;;;;1999.90;999.90;;;0.10;99.90;;;;;;5095844;28;20208;-50
2020/12/08 16:02:46;;;;;;;1999.90;999.90;;;0.00;99.90;;;;;;5089766;28;20295;-50
2020/12/08 16:05:12;;;;;;;1999.90;999.90;;;-0.10;99.90;;;;;;5089889;28;20243;-49
2020/12/08 16:07:38;;;;;;;1999.90;999.90;;;-0.20;99.90;;;;;;5074871;28;20216;-49
2020/12/08 16:10:05;;;;;;;1999.90;999.90;;;-0.30;99.90;;;;;;5090698;28;20462;-50
2020/12/08 16:12:40;;;;;;;1999.90;999.90;;;-0.50;99.90;;;;;;5088672;28;20435;-50
2020/12/08 16:15:07;;;;;;;1999.90;999.90;;;-0.50;99.90;;;;;;5087443;28;20447;-48
2020/12/08 16:17:38;;;;;;;1999.90;999.90;;;-0.60;99.90;;;;;;5093203;28;20458;-49
2020/12/08 16:20:08;;;;;;;1999.90;999.90;;;-0.70;99.90;;;;;;5078852;28;20458;-49
2020/12/08 16:22:34;;;;;;;1999.90;999.90;;;-0.90;99.90;;;;;;5075277;28;20472;-48
2020/12/08 16:25:00;;;;;;;1999.90;999.90;;;-1.10;99.90;;;;;;5065109;28;20431;-48
2020/12/08 16:27:26;;;;;;;1999.90;999.90;;;-1.20;99.90;;;;;;5068848;28;20821;-49
2020/12/08 16:29:53;;;;;;;1999.90;999.90;;;-1.20;99.90;;;;;;5068393;28;20284;-49
2020/12/08 16:32:19;;;;;;;1999.90;999.90;;;-1.30;99.90;;;;;;5067950;28;20581;-50
2020/12/08 16:34:45;;;;;;;1999.90;999.90;;;-1.40;99.90;;;;;;5070482;28;20920;-50
2020/12/08 16:37:11;;;;;;;1999.90;999.90;;;-1.40;99.90;;;;;;5071338;28;20564;-50
2020/12/08 16:39:39;;;;;;;1999.90;999.90;;;-1.50;99.90;;;;;;5069464;28;20456;-51
2020/12/08 16:42:04;;;;;;;1999.90;999.90;;;-1.60;99.90;;;;;;5067610;28;20475;-49
2020/12/08 16:44:30;;;;;;;1999.90;999.90;;;-1.60;99.90;;;;;;5068889;28;20439;-49
2020/12/08 16:46:56;;;;;;;1999.90;999.90;;;-1.60;99.90;;;;;;5062235;28;20927;-49
2020/12/08 16:49:21;;;;;;;1999.90;999.90;;;-1.70;99.90;;;;;;5061654;28;20181;-50
2020/12/08 16:51:47;;;;;;;1999.90;999.90;;;-1.70;99.90;;;;;;5064294;28;20215;-50
2020/12/08 16:54:13;;;;;;;1999.90;999.90;;;-1.80;99.90;;;;;;5066604;28;20182;-50
2020/12/08 16:56:39;;;;;;;1999.90;999.90;;;-1.80;99.90;;;;;;5069220;28;20676;-49
2020/12/08 16:59:05;;;;;;;1999.90;999.90;;;-1.90;99.90;;;;;;5067534;28;20601;-50
2020/12/08 17:01:44;;;;;;;1999.90;999.90;;;-1.90;99.90;;;;;;5070545;28;20486;-49
2020/12/08 17:04:10;;;;;;;1999.90;999.90;;;-1.90;99.90;;;;;;5067607;28;20435;-48
2020/12/08 17:06:36;;;;;;;1999.90;999.90;;;-1.80;99.90;;;;;;5070727;28;20423;-49
2020/12/08 17:09:02;;;;;;;1999.90;999.90;;;-1.80;99.90;;;;;;5066545;28;20506;-50
2020/12/08 17:11:28;;;;;;;1999.90;999.90;;;-1.80;99.90;;;;;;5061733;28;20742;-49
2020/12/08 17:13:54;;;;;;;1999.90;999.90;;;-1.70;99.90;;;;;;5064150;28;20442;-49
2020/12/08 17:16:19;;;;;;;1999.90;999.90;;;-1.80;99.90;;;;;;5068436;28;20268;-49
2020/12/08 17:18:45;;;;;;;1999.90;999.90;;;-1.90;99.90;;;;;;5069486;28;20238;-48
2020/12/08 17:21:11;;;;;;;1999.90;999.90;;;-1.90;99.90;;;;;;5067450;28;20560;-49
2020/12/08 17:23:37;;;;;;;1999.90;999.90;;;-1.90;99.90;;;;;;5069168;28;20552;-49
2020/12/08 17:26:03;;;;;;;1999.90;999.90;;;-1.90;99.90;;;;;;5068358;28;20423;-51
2020/12/08 17:28:28;;;;;;;1999.90;999.90;;;-1.90;99.90;;;;;;5068454;28;20211;-50
2020/12/08 17:30:55;;;;;;;1999.90;999.90;;;-1.90;99.90;;;;;;5065960;28;20538;-50
2020/12/08 17:33:22;;;;;;;1999.90;999.90;;;-1.90;99.90;;;;;;5065658;28;20443;-48
2020/12/08 17:35:47;;;;;;;1999.90;999.90;;;-1.90;99.90;;;;;;5068532;28;20443;-50
2020/12/08 17:38:13;;;;;;;1999.90;999.90;;;-1.90;99.90;;;;;;5069352;28;20447;-49
2020/12/08 17:40:40;;;;;;;1999.90;999.90;;;-1.90;99.90;;;;;;5069619;28;20259;-51
2020/12/08 17:43:05;;;;;;;1999.90;999.90;;;-1.90;99.90;;;;;;5068410;28;20258;-49
2020/12/08 17:45:31;;;;;;;1999.90;999.90;;;-1.70;99.90;;;;;;5067252;28;20471;-50
2020/12/08 17:47:59;;;;;;;1999.90;999.90;;;-1.60;99.90;;;;;;5068130;28;20824;-50
2020/12/08 17:50:25;;;;;;;1999.90;999.90;;;-1.40;99.90;;;;;;5069620;28;20272;-51
2020/12/08 17:52:52;;;;;;;1999.90;999.90;;;-1.30;99.90;;;;;;5065944;28;20849;-51
2020/12/08 17:55:18;;;;;;;1999.90;999.90;;;-1.20;99.90;;;;;;5070074;28;20191;-51
2020/12/08 17:57:44;;;;;;;1999.90;999.90;;;-1.10;99.90;;;;;;5066357;28;20812;-49
2020/12/08 18:00:12;;;;;;;1999.90;999.90;;;-1.10;99.90;;;;;;5075211;28;20495;-52
2020/12/08 18:02:38;;;;;;;1999.90;999.90;;;-1.00;99.90;;;;;;5076046;28;20436;-51
2020/12/08 18:05:05;;;;;;;1999.90;999.90;;;-0.90;99.90;;;;;;5069451;28;20464;-51
2020/12/08 18:07:35;;;;;;;1999.90;999.90;;;-0.90;99.90;;;;;;5070707;28;20465;-51
2020/12/08 18:10:02;;;;;;;1999.90;999.90;;;-0.80;99.90;;;;;;5069016;28;21007;-51
2020/12/08 18:12:31;;;;;;;1999.90;999.90;;;-0.70;99.90;;;;;;5070930;28;20451;-51
2020/12/08 18:14:57;;;;;;;1999.90;999.90;;;-0.60;99.90;;;;;;5071642;28;20481;-51
2020/12/08 18:17:22;;;;;;;1999.90;999.90;;;-0.60;99.90;;;;;;5071460;28;20420;-51
2020/12/08 18:19:48;;;;;;;1999.90;999.90;;;-0.50;99.90;;;;;;5069655;28;20329;-51
2020/12/08 18:22:13;;;;;;;1999.90;999.90;;;-0.40;99.90;;;;;;5070784;28;20193;-50
2020/12/08 18:24:39;;;;;;;1999.90;999.90;;;-0.30;99.90;;;;;;5071916;28;20666;-51
2020/12/08 18:27:06;;;;;;;1999.90;999.90;;;-0.30;99.90;;;;;;5067959;28;20202;-51
2020/12/08 18:29:33;;;;;;;1999.90;999.90;;;-0.20;99.90;;;;;;5070925;28;20202;-50
2020/12/08 18:32:00;;;;;;;1999.90;999.90;;;0.00;99.90;;;;;;5067115;28;20487;-52
2020/12/08 18:34:26;;;;;;;1999.90;999.90;;;0.00;99.90;;;;;;5071218;28;20432;-51
2020/12/08 18:36:52;;;;;;;1999.90;999.90;;;0.10;99.90;;;;;;5068711;28;20833;-51
2020/12/08 18:39:18;;;;;;;1999.90;999.90;;;0.20;99.90;;;;;;5066041;28;20433;-51
2020/12/08 18:41:45;;;;;;;1999.90;999.90;;;0.20;99.90;;;;;;5063258;28;20440;-52
2020/12/08 18:44:11;;;;;;;1999.90;999.90;;;0.20;99.90;;;;;;5063365;28;20187;-52
2020/12/08 18:46:38;;;;;;;1999.90;999.90;;;0.30;99.90;;;;;;5065010;28;20444;-50
2020/12/08 18:49:04;;;;;;;1999.90;999.90;;;0.40;99.90;;;;;;5066096;28;20463;-51
2020/12/08 18:51:31;;;;;;;1999.90;999.90;;;0.30;99.90;;;;;;5065649;28;20471;-51
2020/12/08 18:53:57;;;;;;;1999.90;999.90;;;0.30;99.90;;;;;;5065418;28;20187;-52
2020/12/08 18:56:23;;;;;;;1999.90;999.90;;;0.50;99.90;;;;;;5069897;28;20433;-51
2020/12/08 18:58:48;;;;;;;1999.90;999.90;;;0.50;99.90;;;;;;5065562;28;20663;-51
2020/12/08 19:01:14;;;;;;;1999.90;999.90;;;0.40;99.90;;;;;;5067171;28;20734;-51
2020/12/08 19:03:40;;;;;;;1999.90;999.90;;;0.40;99.90;;;;;;5068649;28;20183;-52
2020/12/08 19:06:05;;;;;;;1999.90;999.90;;;0.40;99.90;;;;;;5067273;28;20194;-52
2020/12/08 19:08:31;;;;;;;1999.90;999.90;;;0.50;99.90;;;;;;5066266;28;20674;-51
2020/12/08 19:10:57;;;;;;;1999.90;999.90;;;0.50;99.90;;;;;;5067574;28;20239;-50
2020/12/08 19:13:22;;;;;;;1999.90;999.90;;;0.50;99.90;;;;;;5064043;28;20298;-52
2020/12/08 19:15:52;;;;;;;1999.90;999.90;;;0.40;99.90;;;;;;5061534;28;20849;-52
2020/12/08 19:18:18;;;;;;;1999.90;999.90;;;0.40;99.90;;;;;;5063687;28;20960;-52
2020/12/08 19:20:44;;;;;;;1999.90;999.90;;;0.40;99.90;;;;;;5065684;28;20536;-52
2020/12/08 19:23:09;;;;;;;1999.90;999.90;;;0.40;99.90;;;;;;5064435;28;20444;-51
2020/12/08 19:25:36;;;;;;;1999.90;999.90;;;0.50;99.90;;;;;;5066652;28;20599;-51
2020/12/08 19:28:02;;;;;;;1999.90;999.90;;;0.50;99.90;;;;;;5064294;28;20286;-52
2020/12/08 19:30:28;;;;;;;1999.90;999.90;;;0.50;99.90;;;;;;5061506;28;20465;-52
2020/12/08 19:32:54;;;;;;;1999.90;999.90;;;0.60;99.90;;;;;;5060620;28;20441;-51
2020/12/08 19:35:20;;;;;;;1999.90;999.90;;;0.60;99.90;;;;;;5059089;28;20431;-51
2020/12/08 19:37:47;;;;;;;1999.90;999.90;;;0.70;99.90;;;;;;5056832;28;20454;-51
2020/12/08 19:40:13;;;;;;;1999.90;999.90;;;0.70;99.90;;;;;;5059120;28;20469;-50
2020/12/08 19:42:40;;;;;;;1999.90;999.90;;;0.70;99.90;;;;;;5068003;28;20453;-52
2020/12/08 19:45:07;;;;;;;1999.90;999.90;;;0.70;99.90;;;;;;5068494;28;21239;-52
2020/12/08 19:47:36;;;;;;;1999.90;999.90;;;0.70;99.90;;;;;;5066798;28;20548;-52
2020/12/08 19:50:10;;;;;;;1999.90;999.90;;;0.80;99.90;;;;;;5062928;28;21025;-53
2020/12/08 19:52:36;;;;;;;1999.90;999.90;;;0.80;99.90;;;;;;5068554;28;20441;-53
2020/12/08 19:55:05;;;;;;;1999.90;999.90;;;1.00;99.90;;;;;;5070337;28;20763;-51
2020/12/08 19:57:31;;;;;;;1999.90;999.90;;;1.10;99.90;;;;;;5067132;28;20183;-52
2020/12/08 19:59:56;;;;;;;1999.90;999.90;;;1.00;99.90;;;;;;5069758;28;20483;-52
2020/12/08 20:02:22;;;;;;;1999.90;999.90;;;1.00;99.90;;;;;;5071237;28;20193;-51
2020/12/08 20:04:48;;;;;;;1999.90;999.90;;;1.00;99.90;;;;;;5071651;28;20210;-52
2020/12/08 20:07:13;;;;;;;1999.90;999.90;;;1.00;99.90;;;;;;5071095;28;20291;-52
2020/12/08 20:09:39;;;;;;;1999.90;999.90;;;1.00;99.90;;;;;;5070099;28;20240;-52
2020/12/08 20:12:10;;;;;;;1999.90;999.90;;;1.00;99.90;;;;;;5068256;28;20191;-52
2020/12/08 20:14:36;;;;;;;1999.90;999.90;;;1.00;99.90;;;;;;5067441;28;20639;-52
2020/12/08 20:17:03;;;;;;;1999.90;999.90;;;1.00;99.90;;;;;;5069640;28;20457;-51
2020/12/08 20:19:28;;;;;;;1999.90;999.90;;;1.00;99.90;;;;;;5069056;28;20536;-51
2020/12/08 20:21:54;;;;;;;1999.90;999.90;;;1.00;99.90;;;;;;5070369;28;20511;-52
2020/12/08 20:24:20;;;;;;;1999.90;999.90;;;1.10;99.90;;;;;;5070182;28;20218;-51
2020/12/08 20:26:46;;;;;;;1999.90;999.90;;;1.10;99.90;;;;;;5070420;28;20192;-52
2020/12/08 20:29:11;;;;;;;1999.90;999.90;;;1.20;99.90;;;;;;5069604;28;20212;-52
2020/12/08 20:31:41;;;;;;;1999.90;999.90;;;1.10;99.90;;;;;;5067311;28;20174;-51
2020/12/08 20:34:07;;;;;;;1999.90;999.90;;;1.20;99.90;;;;;;5068857;28;20441;-51
2020/12/08 20:36:34;;;;;;;1999.90;999.90;;;1.20;99.90;;;;;;5066428;28;20499;-51
2020/12/08 20:39:00;;;;;;;1999.90;999.90;;;1.10;99.90;;;;;;5060971;28;20424;-51
2020/12/08 20:41:27;;;;;;;1999.90;999.90;;;1.10;99.90;;;;;;5068039;28;20545;-52
2020/12/08 20:43:53;;;;;;;1999.90;999.90;;;1.20;99.90;;;;;;5068551;28;20547;-51
2020/12/08 20:46:19;;;;;;;1999.90;999.90;;;1.20;99.90;;;;;;5068273;28;20449;-51
2020/12/08 20:48:45;;;;;;;1999.90;999.90;;;1.20;99.90;;;;;;5069139;28;20468;-51
2020/12/08 20:51:12;;;;;;;1999.90;999.90;;;1.20;99.90;;;;;;5069404;28;20437;-51
2020/12/08 20:53:38;;;;;;;1999.90;999.90;;;1.20;99.90;;;;;;5067804;28;20466;-51
2020/12/08 20:56:04;;;;;;;1999.90;999.90;;;1.20;99.90;;;;;;5069498;28;20431;-51
2020/12/08 20:58:31;;;;;;;1999.90;999.90;;;1.20;99.90;;;;;;5066456;28;20449;-51
2020/12/08 21:01:00;;;;;;;1999.90;999.90;;;1.20;99.90;;;;;;5068854;28;20912;-51
2020/12/08 21:03:26;;;;;;;1999.90;999.90;;;1.20;99.90;;;;;;5068369;28;20432;-51
2020/12/08 21:05:52;;;;;;;1999.90;999.90;;;1.20;99.90;;;;;;5068349;28;20441;-51
2020/12/08 21:08:18;;;;;;;1999.90;999.90;;;1.30;99.90;;;;;;5067823;28;20215;-51
2020/12/08 21:10:44;;;;;;;1999.90;999.90;;;1.30;99.90;;;;;;5067274;28;20458;-51
2020/12/08 21:13:10;;;;;;;1999.90;999.90;;;1.30;99.90;;;;;;5066981;28;20516;-51
2020/12/08 21:15:36;;;;;;;1999.90;999.90;;;1.30;99.90;;;;;;5065575;28;20476;-51
2020/12/08 21:18:02;;;;;;;1999.90;999.90;;;1.30;99.90;;;;;;5068990;28;20447;-51
2020/12/08 21:20:28;;;;;;;1999.90;999.90;;;1.30;99.90;;;;;;5069504;28;20219;-51
2020/12/08 21:22:58;;;;;;;1999.90;999.90;;;1.30;99.90;;;;;;5066855;28;20184;-51
2020/12/08 21:25:27;;;;;;;1999.90;999.90;;;1.40;99.90;;;;;;5060292;28;20430;-50
2020/12/08 21:27:58;;;;;;;1999.90;999.90;;;1.30;99.90;;;;;;5063531;28;20464;-51
2020/12/08 21:30:25;;;;;;;1999.90;999.90;;;1.40;99.90;;;;;;5059431;28;20456;-51
2020/12/08 21:32:52;;;;;;;1999.90;999.90;;;1.50;99.90;;;;;;5067383;28;20469;-51
2020/12/08 21:35:18;;;;;;;1999.90;999.90;;;1.40;99.90;;;;;;5070475;28;20444;-51
2020/12/08 21:37:45;;;;;;;1999.90;999.90;;;1.40;99.90;;;;;;5065651;28;20435;-51
2020/12/08 21:40:12;;;;;;;1999.90;999.90;;;1.40;99.90;;;;;;5061810;28;20789;-50
2020/12/08 21:42:40;;;;;;;1999.90;999.90;;;1.30;99.90;;;;;;5067691;28;20449;-51
2020/12/08 21:45:07;;;;;;;1999.90;999.90;;;1.40;99.90;;;;;;5067439;28;20545;-51
2020/12/08 21:47:33;;;;;;;1999.90;999.90;;;1.40;99.90;;;;;;5066726;28;20556;-51
2020/12/08 21:50:05;;;;;;;1999.90;999.90;;;1.40;99.90;;;;;;5067166;28;20462;-51
2020/12/08 21:52:32;;;;;;;1999.90;999.90;;;1.50;99.90;;;;;;5068790;28;20487;-51
2020/12/08 21:54:58;;;;;;;1999.90;999.90;;;1.50;99.90;;;;;;5067938;28;20924;-51
2020/12/08 21:57:24;;;;;;;1999.90;999.90;;;1.50;99.90;;;;;;5069200;28;20452;-51
2020/12/08 21:59:51;;;;;;;1999.90;999.90;;;1.40;99.90;;;;;;5065423;28;20231;-52
2020/12/08 22:02:18;;;;;;;1999.90;999.90;;;1.50;99.90;;;;;;5067693;28;20440;-50
2020/12/08 22:04:44;;;;;;;1999.90;999.90;;;1.40;99.90;;;;;;5067197;28;20969;-49
2020/12/08 22:07:10;;;;;;;1999.90;999.90;;;1.40;99.90;;;;;;5067000;28;20555;-49
2020/12/08 22:09:36;;;;;;;1999.90;999.90;;;1.50;99.90;;;;;;5067289;28;20532;-49
2020/12/08 22:12:02;;;;;;;1999.90;999.90;;;1.50;99.90;;;;;;5066593;28;20184;-51
2020/12/08 22:14:27;;;;;;;1999.90;999.90;;;1.50;99.90;;;;;;5065238;28;20781;-51
2020/12/08 22:16:53;;;;;;;1999.90;999.90;;;1.60;99.90;;;;;;5068390;28;20464;-51
2020/12/08 22:19:19;;;;;;;1999.90;999.90;;;1.50;99.90;;;;;;5067371;28;20273;-51
2020/12/08 22:21:44;;;;;;;1999.90;999.90;;;1.60;99.90;;;;;;5075398;28;20172;-51
2020/12/08 22:24:11;;;;;;;1999.90;999.90;;;1.60;99.90;;;;;;5078550;28;20192;-52
2020/12/08 22:26:37;;;;;;;1999.90;999.90;;;1.60;99.90;;;;;;5073296;28;20194;-51
2020/12/08 22:29:03;;;;;;;1999.90;999.90;;;1.60;99.90;;;;;;5071085;28;20474;-51
2020/12/08 22:31:29;;;;;;;1999.90;999.90;;;1.60;99.90;;;;;;5069561;28;20862;-51
2020/12/08 22:33:55;;;;;;;1999.90;999.90;;;1.50;99.90;;;;;;5069394;28;20433;-51
2020/12/08 22:36:21;;;;;;;1999.90;999.90;;;1.60;99.90;;;;;;5069802;28;20446;-51
2020/12/08 22:38:47;;;;;;;1999.90;999.90;;;1.50;99.90;;;;;;5070077;28;20842;-51
2020/12/08 22:41:14;;;;;;;1999.90;999.90;;;1.60;99.90;;;;;;5069312;28;20211;-51
2020/12/08 22:43:40;;;;;;;1999.90;999.90;;;1.60;99.90;;;;;;5069646;28;20207;-51
2020/12/08 22:46:05;;;;;;;1999.90;999.90;;;1.60;99.90;;;;;;5069717;28;20840;-51
2020/12/08 22:48:31;;;;;;;1999.90;999.90;;;1.60;99.90;;;;;;5069009;28;20327;-51
2020/12/08 22:50:57;;;;;;;1999.90;999.90;;;1.60;99.90;;;;;;5069063;28;20205;-52
2020/12/08 22:53:22;;;;;;;1999.90;999.90;;;1.50;99.90;;;;;;5070352;28;20752;-51
2020/12/08 22:55:48;;;;;;;1999.90;999.90;;;1.50;99.90;;;;;;5068818;28;20264;-52
2020/12/08 22:58:14;;;;;;;1999.90;999.90;;;1.50;99.90;;;;;;5069889;28;20671;-51
2020/12/08 23:00:40;;;;;;;1999.90;999.90;;;1.60;99.90;;;;;;5066020;28;20203;-52
